Time;durP1;ratioP1;P1;durP2;ratioP2;P2;SDS_P1;SDS_P2;PMS_P1;PMS_P2;Temp;Humidity;BMP_temperature;BMP_pressure;BME280_temperature;BME280_humidity;BME280_pressure;Samples;Min_cycle;Max_cycle;Signal;HPM_P1;HPM_P2
2021/11/04 00:07:58;;;;;;;10.40;8.30;;;;;;;19.23;51.65;100924.63;115079;1198;60153;-81
2021/11/04 00:10:34;;;;;;;11.30;8.40;;;;;;;19.24;51.58;100931.75;115246;1198;58776;-81
2021/11/04 00:13:06;;;;;;;12.30;8.40;;;;;;;19.24;51.68;100928.52;115241;1198;63803;-81
2021/11/04 00:15:44;;;;;;;11.20;8.20;;;;;;;19.24;51.50;100925.85;115283;1198;66595;-81
2021/11/04 00:18:24;;;;;;;10.90;8.20;;;;;;;19.24;51.52;100914.42;115343;1198;59229;-81
2021/11/04 00:21:34;;;;;;;13.50;8.90;;;;;;;19.24;51.60;100895.66;115190;1198;58772;-81
2021/11/04 00:24:08;;;;;;;11.60;8.30;;;;;;;19.23;51.63;100873.42;115296;1198;64792;-81
2021/11/04 00:26:37;;;;;;;11.30;8.60;;;;;;;19.23;51.71;100860.55;115295;1198;66668;-81
2021/11/04 00:29:08;;;;;;;11.80;8.50;;;;;;;19.24;51.75;100873.75;115169;1198;58738;-81
2021/11/04 00:31:37;;;;;;;11.50;8.40;;;;;;;19.24;51.69;100881.23;115091;1200;59185;-81
2021/11/04 00:34:53;;;;;;;;;;;;;;;;;;;;;
2021/11/04 00:38:24;;;;;;;;;;;;;;;;;;;;;
2021/11/04 00:41:12;;;;;;;11.90;7.80;;;;;;;19.23;51.81;100880.23;115161;1198;58894;-81
2021/11/04 00:44:06;;;;;;;12.70;8.60;;;;;;;19.22;51.82;100878.83;115354;1198;58750;-81
2021/11/04 00:47:23;;;;;;;;;;;;;;;;;;;;;
2021/11/04 00:50:48;;;;;;;;;;;;;;;;;;;;;
2021/11/04 00:53:17;;;;;;;10.40;8.00;;;;;;;19.21;51.69;100891.42;115216;1201;58980;-81
2021/11/04 00:59:32;;;;;;;11.40;8.20;;;;;;;19.21;51.75;100898.00;115206;1201;62597;-81
2021/11/04 01:08:44;;;;;;;11.20;8.80;;;;;;;19.20;51.66;100884.48;115128;1198;59642;-81
2021/11/04 01:11:33;;;;;;;12.10;8.60;;;;;;;19.20;51.63;100890.20;115220;1198;63683;-82
2021/11/04 01:14:02;;;;;;;11.90;8.30;;;;;;;19.21;51.87;100893.91;115189;1198;75707;-81
2021/11/04 01:16:51;;;;;;;12.50;8.50;;;;;;;19.21;51.70;100900.16;115156;1198;60205;-81
2021/11/04 01:20:19;;;;;;;10.10;7.70;;;;;;;19.21;51.75;100901.58;115312;1198;60017;-81
2021/11/04 01:23:20;;;;;;;11.30;8.30;;;;;;;19.20;51.88;100899.83;115185;1198;71201;-84
2021/11/04 01:26:35;;;;;;;;;;;;;;;;;;;;;
2021/11/04 01:30:20;;;;;;;11.10;8.60;;;;;;;19.19;51.73;100912.72;115137;1199;59793;-84
2021/11/04 01:36:11;;;;;;;10.70;8.10;;;;;;;19.18;51.72;100898.14;115277;1198;72949;-80
2021/11/04 01:39:27;;;;;;;10.50;8.00;;;;;;;19.18;51.74;100894.41;115200;1198;65709;-84
2021/11/04 01:42:46;;;;;;;;;;;;;;;;;;;;;
2021/11/04 01:46:09;;;;;;;9.70;8.10;;;;;;;19.18;51.82;100898.39;115085;1201;58869;-83
2021/11/04 01:49:16;;;;;;;;;;;;;;;;;;;;;
2021/11/04 01:51:54;;;;;;;11.80;8.50;;;;;;;19.17;51.73;100902.67;114933;1201;66628;-83
2021/11/04 01:54:24;;;;;;;11.40;8.60;;;;;;;19.18;51.73;100902.67;115053;1202;58884;-83
2021/11/04 01:57:22;;;;;;;11.00;8.50;;;;;;;19.17;51.77;100900.17;115034;1202;58796;-83
2021/11/04 02:01:00;;;;;;;11.10;8.40;;;;;;;19.17;51.64;100903.77;114723;1206;62495;-83
2021/11/04 02:03:47;;;;;;;12.70;8.80;;;;;;;19.17;51.77;100905.58;114626;1206;65814;-83
2021/11/04 02:07:09;;;;;;;12.20;8.70;;;;;;;19.17;51.73;100903.26;114564;1208;58856;-83
2021/11/04 02:17:18;;;;;;;10.30;8.50;;;;;;;19.16;51.69;100898.48;114906;1197;74247;-81
2021/11/04 02:20:34;;;;;;;;;;;;;;;;;;;;;
2021/11/04 02:23:21;;;;;;;11.30;9.10;;;;;;;19.16;51.74;100898.35;115069;1203;58829;-81
2021/11/04 02:26:04;;;;;;;11.80;8.60;;;;;;;19.15;51.72;100906.73;115055;1201;64790;-82
2021/11/04 02:29:02;;;;;;;;;;;;;;;;;;;;;
2021/11/04 02:31:41;;;;;;;12.30;9.20;;;;;;;19.16;51.77;100909.93;115141;1201;58940;-81
2021/11/04 02:34:53;;;;;;;11.20;8.80;;;;;;;19.16;51.64;100905.09;115223;1201;58709;-82
2021/11/04 02:38:07;;;;;;;12.50;8.80;;;;;;;19.16;51.75;100902.60;115053;1202;63905;-82
2021/11/04 02:40:58;;;;;;;;;;;;;;;;;;;;;
2021/11/04 02:49:20;;;;;;;13.70;8.70;;;;;;;19.13;51.74;100907.94;115052;1197;72221;-81
2021/11/04 02:52:09;;;;;;;11.10;8.70;;;;;;;19.14;51.69;100909.52;115265;1198;74517;-81
2021/11/04 02:55:24;;;;;;;;;;;;;;;;;;;;;
2021/11/04 02:58:17;;;;;;;12.10;9.00;;;;;;;19.13;51.81;100907.77;114714;1198;59174;-81
2021/11/04 03:01:05;;;;;;;11.40;8.80;;;;;;;19.13;51.80;100903.84;115237;1199;64494;-83
2021/11/04 03:03:45;;;;;;;13.40;8.70;;;;;;;19.14;51.78;100897.74;115259;1198;65680;-83
2021/11/04 03:07:01;;;;;;;13.20;9.50;;;;;;;19.13;51.72;100899.71;115194;1198;58684;-83
2021/11/04 03:10:00;;;;;;;;;;;;;;;19.13;51.69;100896.16;115309;1198;58780;-82
2021/11/04 03:12:31;;;;;;;12.20;9.00;;;;;;;19.11;51.84;100903.42;115248;1198;64763;-82
2021/11/04 03:15:41;;;;;;;;;;;;;;;;;;;;;
2021/11/04 03:19:01;;;;;;;11.70;9.00;;;;;;;19.13;51.69;100911.90;115282;1198;60103;-83
2021/11/04 03:21:18;;;;;;;11.20;8.90;;;;;;;19.13;51.65;100920.65;115241;1198;59875;-83
2021/11/04 03:24:25;;;;;;;11.90;9.00;;;;;;;19.13;51.77;100931.70;115009;1202;71323;-83
2021/11/04 03:27:11;;;;;;;12.30;8.20;;;;;;;19.12;51.75;100934.40;114861;1203;72030;-83
2021/11/04 03:30:01;;;;;;;11.50;8.90;;;;;;;19.12;51.62;100931.71;114913;1202;59813;-83
2021/11/04 03:32:37;;;;;;;13.20;9.70;;;;;;;19.13;51.77;100934.91;114885;1203;60111;-83
2021/11/04 03:35:14;;;;;;;10.20;8.60;;;;;;;19.13;51.61;100936.67;115154;1201;72441;-82
2021/11/04 03:38:11;;;;;;;;;;;;;;;;;;;;;
2021/11/04 03:40:49;;;;;;;11.60;9.20;;;;;;;19.13;51.64;100928.80;115214;1201;60876;-83
2021/11/04 03:43:40;;;;;;;12.00;8.90;;;;;;;19.13;51.59;100933.47;115185;1201;59114;-83
2021/11/04 03:46:42;;;;;;;13.40;9.40;;;;;;;19.13;51.70;100942.20;115153;1201;73344;-83
2021/11/04 03:49:24;;;;;;;10.90;8.60;;;;;;;19.14;51.70;100945.02;115128;1201;75307;-83
2021/11/04 03:52:07;;;;;;;;;;;;;;;;;;;;;
2021/11/04 03:55:11;;;;;;;10.60;8.60;;;;;;;19.13;51.77;100950.09;115177;1201;59769;-83
2021/11/04 03:58:09;;;;;;;12.20;9.00;;;;;;;19.12;51.63;100950.27;114847;1203;72403;-83
2021/11/04 04:00:45;;;;;;;11.30;8.40;;;;;;;19.12;51.68;100952.77;114890;1203;74392;-83
2021/11/04 04:03:53;;;;;;;13.20;9.00;;;;;;;19.13;51.74;100952.23;115162;1201;59146;-83
2021/11/04 04:06:30;;;;;;;11.50;8.30;;;;;;;19.13;51.60;100954.19;114827;1204;59765;-83
2021/11/04 04:09:04;;;;;;;11.70;8.60;;;;;;;19.13;51.77;100952.94;114738;1205;58884;-83
2021/11/04 04:12:24;;;;;;;;;;;;;;;;;;;;;
2021/11/04 04:15:30;;;;;;;;;;;;;;;;;;;;;
2021/11/04 04:18:28;;;;;;;11.10;7.90;;;;;;;19.12;51.73;100954.05;114804;1204;61046;-82
2021/11/04 04:21:42;;;;;;;10.80;8.50;;;;;;;19.12;51.67;100949.56;114762;1205;72356;-83
2021/11/04 04:24:06;;;;;;;11.70;9.10;;;;;;;19.11;51.65;100942.12;114683;1205;74150;-83
2021/11/04 04:27:03;;;;;;;11.40;8.60;;;;;;;19.12;51.72;100948.52;114775;1205;60002;-83
2021/11/04 04:29:43;;;;;;;11.20;8.50;;;;;;;19.11;51.74;100949.08;114803;1204;60037;-83
2021/11/04 04:32:20;;;;;;;11.40;8.70;;;;;;;19.12;51.79;100949.04;114662;1205;72251;-82
2021/11/04 04:35:09;;;;;;;12.60;9.00;;;;;;;19.11;51.79;100947.48;114977;1202;74496;-82
2021/11/04 04:38:35;;;;;;;11.50;8.40;;;;;;;19.11;51.72;100952.99;115034;1201;59848;-82
2021/11/04 04:41:01;;;;;;;11.30;8.80;;;;;;;19.11;51.72;100964.81;115196;1201;61091;-83
2021/11/04 04:43:40;;;;;;;;;;;;;;;;;;;;;
2021/11/04 04:46:22;;;;;;;;;;;;;;;;;;;;;
2021/11/04 04:49:02;;;;;;;;;;;;;;;;;;;;;
2021/11/04 04:51:51;;;;;;;12.90;9.00;;;;;;;19.11;51.78;100962.29;115169;1199;61045;-82
2021/11/04 04:54:17;;;;;;;11.60;8.90;;;;;;;19.11;51.66;100962.66;115146;1201;72028;-83
2021/11/04 04:56:55;;;;;;;10.90;8.30;;;;;;;19.11;51.80;100969.27;115227;1200;59112;-83
2021/11/04 04:59:41;;;;;;;11.30;8.50;;;;;;;19.11;51.69;100961.24;115247;1200;61775;-83
2021/11/04 05:02:19;;;;;;;13.20;9.10;;;;;;;19.11;51.62;100963.92;115244;1201;60031;-83
2021/11/04 05:04:57;;;;;;;11.80;9.00;;;;;;;19.11;51.56;100968.02;115208;1201;72201;-82
2021/11/04 05:07:35;;;;;;;;;;;;;;;;;;;;;
2021/11/04 05:10:55;;;;;;;;;;;;;;;;;;;;;
2021/11/04 05:13:39;;;;;;;10.50;8.30;;;;;;;19.10;51.69;100973.41;114793;1204;59072;-82
2021/11/04 05:16:45;;;;;;;;;;;;;;;;;;;;;
2021/11/04 05:19:23;;;;;;;11.40;8.80;;;;;;;19.10;51.65;100965.40;114756;1205;75244;-83
2021/11/04 05:21:58;;;;;;;11.50;8.90;;;;;;;19.11;51.73;100963.20;114796;1204;59898;-83
2021/11/04 05:24:43;;;;;;;13.00;8.50;;;;;;;19.10;51.76;100966.97;114740;1206;60182;-83
2021/11/04 05:27:48;;;;;;;;;;;;;;;;;;;;;
2021/11/04 05:30:55;;;;;;;;;;;;;;;;;;;;;
2021/11/04 05:37:09;;;;;;;10.80;8.30;;;;;;;19.09;51.67;100952.42;114654;1198;60398;-81
2021/11/04 05:40:05;;;;;;;11.80;8.60;;;;;;;19.10;51.82;100947.39;115316;1192;73379;-82
2021/11/04 05:43:11;;;;;;;;;;;;;;;;;;;;;
2021/11/04 05:45:40;;;;;;;11.60;8.30;;;;;;;19.10;51.76;100957.92;115138;1198;60873;-82
2021/11/04 05:48:25;;;;;;;10.00;8.20;;;;;;;19.09;51.66;100957.22;115305;1198;58890;-82
2021/11/04 05:51:06;;;;;;;12.20;8.70;;;;;;;19.10;51.68;100964.51;115128;1198;73266;-83
2021/11/04 05:54:20;;;;;;;10.80;8.30;;;;;;;19.09;51.71;100971.34;115268;1198;74174;-82
2021/11/04 05:57:13;;;;;;;10.70;7.90;;;;;;;19.08;51.77;100979.05;115413;1198;58728;-82
2021/11/04 06:00:24;;;;;;;;;;;;;;;;;;;;;
2021/11/04 06:09:05;;;;;;;10.60;8.20;;;;;;;19.07;51.82;101012.98;115071;1197;60040;-82
2021/11/04 06:11:43;;;;;;;11.80;8.70;;;;;;;19.08;51.77;101018.11;115213;1198;59734;-82
2021/11/04 06:14:29;;;;;;;13.10;9.20;;;;;;;19.08;51.82;101024.18;115197;1198;73357;-82
2021/11/04 06:17:01;;;;;;;11.00;8.40;;;;;;;19.08;51.77;101024.52;115498;1198;73456;-82
2021/11/04 06:19:44;;;;;;;11.10;8.40;;;;;;;19.08;51.71;101018.99;115134;1198;61084;-82
2021/11/04 06:22:10;;;;;;;13.20;9.30;;;;;;;19.09;51.83;101016.48;115168;1198;61002;-82
2021/11/04 06:25:12;;;;;;;;;;;;;;;;;;;;;
2021/11/04 06:28:37;;;;;;;;;;;;;;;;;;;;;
2021/11/04 06:31:54;;;;;;;14.30;9.50;;;;;;;19.08;51.70;101027.06;114732;1205;59088;-82
2021/11/04 06:34:46;;;;;;;;;;;;;;;;;;;;;
2021/11/04 06:37:52;;;;;;;12.40;10.00;;;;;;;19.07;51.64;101029.23;114798;1204;73276;-82
2021/11/04 06:40:48;;;;;;;13.30;8.70;;;;;;;19.07;51.72;101026.02;114793;1204;74637;-82
2021/11/04 06:43:58;;;;;;;;;;;;;;;;;;;;;
2021/11/04 06:46:33;;;;;;;13.50;9.20;;;;;;;19.05;51.65;101048.79;114795;1204;61062;-82
2021/11/04 06:49:19;;;;;;;11.90;9.00;;;;;;;19.06;51.80;101064.11;114799;1204;72508;-82
2021/11/04 06:51:49;;;;;;;15.50;10.10;;;;;;;19.05;51.77;101068.60;114793;1204;74397;-81
2021/11/04 06:54:37;;;;;;;17.70;10.40;;;;;;;19.05;51.77;101068.61;114812;1204;58911;-81
2021/11/04 06:57:36;;;;;;;13.40;9.30;;;;;;;19.05;51.72;101063.46;114738;1205;58975;-81
2021/11/04 07:00:28;;;;;;;14.30;10.50;;;;;;;19.04;51.79;101055.13;114650;1205;72241;-82
2021/11/04 07:03:44;;;;;;;11.50;9.10;;;;;;;19.03;51.76;101050.31;114809;1204;75343;-81
2021/11/04 07:06:46;;;;;;;14.50;10.50;;;;;;;19.05;51.71;101059.87;114612;1205;60073;-82
2021/11/04 07:10:03;;;;;;;15.10;10.50;;;;;;;19.07;51.55;101067.95;114908;1202;59056;-82
2021/11/04 07:13:11;;;;;;;15.40;10.10;;;;;;;19.10;51.61;101073.34;114721;1204;72438;-82
2021/11/04 07:15:50;;;;;;;15.00;10.90;;;;;;;19.13;51.54;101080.84;114652;1205;74761;-81
2021/11/04 07:18:56;;;;;;;14.60;10.00;;;;;;;19.16;51.42;101080.81;114716;1205;60479;-81
2021/11/04 07:25:13;;;;;;;15.10;10.00;;;;;;;19.26;51.40;101077.71;115211;1198;72183;-82
2021/11/04 07:28:10;;;;;;;14.80;9.80;;;;;;;19.30;51.38;101072.31;115164;1198;65752;-81
2021/11/04 07:31:10;;;;;;;;;;;;;;;;;;;;;
2021/11/04 07:34:02;;;;;;;13.00;9.10;;;;;;;19.39;51.27;101065.57;114981;1202;60394;-81
2021/11/04 07:36:48;;;;;;;;;;;;;;;19.42;51.01;101059.14;114768;1203;63455;-81
2021/11/04 07:39:28;;;;;;;;;;;;;;;;;;;;;
2021/11/04 07:41:57;;;;;;;13.10;9.00;;;;;;;19.46;50.96;101059.26;114935;1202;58937;-81
2021/11/04 07:44:32;;;;;;;13.90;8.60;;;;;;;19.49;51.04;101056.02;114822;1202;58977;-81
2021/11/04 07:47:36;;;;;;;13.50;8.60;;;;;;;19.51;51.09;101046.80;114923;1202;63578;-81
2021/11/04 07:50:07;;;;;;;16.20;8.70;;;;;;;19.52;50.93;101039.92;114958;1202;67045;-81
2021/11/04 07:52:49;;;;;;;15.10;8.90;;;;;;;19.54;50.82;101040.69;114924;1202;58799;-82
2021/11/04 07:55:38;;;;;;;18.00;9.60;;;;;;;19.55;50.84;101048.48;114691;1203;59008;-81
2021/11/04 07:58:07;;;;;;;16.10;9.70;;;;;;;19.57;50.68;101046.24;114901;1203;73342;-82
2021/11/04 08:00:43;;;;;;;20.50;10.20;;;;;;;19.57;50.68;101042.48;114799;1203;74521;-81
2021/11/04 08:03:29;;;;;;;;;;;;;;;;;;;;;
2021/11/04 08:06:04;;;;;;;18.80;11.10;;;;;;;19.59;50.52;101043.63;114873;1202;59886;-82
2021/11/04 08:08:59;;;;;;;23.60;9.60;;;;;;;19.60;50.46;101041.78;115174;1200;59014;-81
2021/11/04 08:11:35;;;;;;;24.00;10.00;;;;;;;19.61;50.51;101033.34;115126;1200;74707;-81
2021/11/04 08:14:05;;;;;;;18.00;9.50;;;;;;;19.62;50.33;101038.65;115138;1199;59912;-81
2021/11/04 08:16:33;;;;;;;19.30;9.70;;;;;;;19.63;50.45;101043.03;115138;1200;58816;-82
2021/11/04 08:19:02;;;;;;;24.20;11.10;;;;;;;19.65;50.36;101035.27;115070;1199;73811;-81
2021/11/04 08:21:49;;;;;;;18.30;10.10;;;;;;;19.65;50.38;101037.19;115086;1199;75917;-81
2021/11/04 08:24:20;;;;;;;18.30;10.20;;;;;;;19.65;50.40;101040.39;115052;1199;61045;-82
2021/11/04 08:26:51;;;;;;;19.50;10.20;;;;;;;19.66;50.28;101040.55;115092;1199;60137;-81
2021/11/04 08:29:35;;;;;;;19.30;9.40;;;;;;;19.67;50.36;101040.83;115114;1199;72293;-81
2021/11/04 08:32:19;;;;;;;20.10;9.30;;;;;;;19.68;50.27;101040.60;115127;1199;75472;-81
2021/11/04 08:34:48;;;;;;;19.90;9.40;;;;;;;19.69;50.34;101037.67;115140;1199;59396;-82
2021/11/04 08:37:30;;;;;;;17.30;9.70;;;;;;;19.70;50.23;101037.27;115160;1199;60519;-82
2021/11/04 08:40:36;;;;;;;;;;;;;;;;;;;;;
2021/11/04 08:43:12;;;;;;;16.50;9.00;;;;;;;19.71;50.31;101043.42;115169;1199;74339;-81
2021/11/04 08:46:27;;;;;;;17.70;8.90;;;;;;;19.72;50.13;101040.69;115183;1200;59024;-81
2021/11/04 08:48:56;;;;;;;16.50;8.90;;;;;;;19.73;50.17;101038.67;115254;1199;58972;-81
2021/11/04 08:51:54;;;;;;;;;;;;;;;;;;;;;
2021/11/04 08:54:50;;;;;;;16.30;9.60;;;;;;;19.74;50.13;101033.23;114895;1202;74546;-82
2021/11/04 08:57:30;;;;;;;13.20;8.20;;;;;;;19.76;50.00;101030.81;115008;1202;60155;-81
2021/11/04 08:59:58;;;;;;;13.80;9.20;;;;;;;19.77;49.94;101025.39;114837;1203;60956;-81
2021/11/04 09:02:25;;;;;;;13.00;8.50;;;;;;;19.78;49.96;101024.27;114843;1202;59179;-81
2021/11/04 09:05:08;;;;;;;19.30;8.50;;;;;;;19.79;50.09;101034.90;114773;1203;74319;-82
2021/11/04 09:08:15;;;;;;;15.20;7.90;;;;;;;19.81;50.16;101039.13;114845;1202;59455;-81
2021/11/04 09:10:52;;;;;;;;;;;;;;;;;;;;;
2021/11/04 09:13:36;;;;;;;14.60;8.30;;;;;;;19.85;50.15;101021.91;115030;1202;72298;-81
2021/11/04 09:16:10;;;;;;;16.00;8.20;;;;;;;19.86;50.07;101024.87;115022;1202;76070;-81
2021/11/04 09:18:39;;;;;;;21.30;8.30;;;;;;;19.88;50.10;101026.91;115026;1202;59906;-81
2021/11/04 09:21:17;;;;;;;16.10;8.30;;;;;;;19.89;50.18;101021.97;115050;1202;59216;-81
2021/11/04 09:23:47;;;;;;;14.70;8.80;;;;;;;19.91;50.30;101020.06;114955;1202;73489;-81
2021/11/04 09:26:24;;;;;;;16.30;8.10;;;;;;;19.92;50.34;101015.54;114970;1202;75359;-82
2021/11/04 09:28:58;;;;;;;12.40;7.80;;;;;;;19.94;50.39;101009.91;114974;1202;60480;-81
2021/11/04 09:31:54;;;;;;;13.20;7.70;;;;;;;19.96;50.41;101008.74;115107;1200;59110;-81
2021/11/04 09:34:20;;;;;;;14.20;7.90;;;;;;;19.97;50.33;101017.07;115079;1198;73338;-82
2021/11/04 09:36:53;;;;;;;14.80;8.00;;;;;;;19.97;50.60;101011.33;115025;1199;75431;-82
2021/11/04 09:39:48;;;;;;;13.50;7.70;;;;;;;19.99;50.46;101006.58;115157;1198;58756;-82
2021/11/04 09:42:40;;;;;;;12.80;7.60;;;;;;;20.00;50.55;101004.18;115086;1199;61540;-82
2021/11/04 09:45:11;;;;;;;12.00;7.80;;;;;;;20.01;50.63;101006.40;115105;1199;71067;-82
2021/11/04 09:47:46;;;;;;;13.20;7.70;;;;;;;20.02;50.56;101004.20;115119;1200;58814;-82
2021/11/04 09:50:13;;;;;;;12.60;7.50;;;;;;;20.03;50.63;100998.59;115256;1200;59855;-81
2021/11/04 09:52:53;;;;;;;;;;;;;;;;;;;;;
2021/11/04 09:55:19;;;;;;;12.80;7.90;;;;;;;20.05;50.64;101005.45;115213;1200;73169;-81
2021/11/04 09:57:46;;;;;;;12.80;7.10;;;;;;;20.06;50.62;101010.05;115086;1199;58834;-81
2021/11/04 10:00:12;;;;;;;15.80;7.70;;;;;;;20.06;50.73;101011.45;115284;1199;60816;-82
2021/11/04 10:02:41;;;;;;;12.40;7.60;;;;;;;20.07;50.80;101009.29;115272;1200;58812;-81
2021/11/04 10:05:08;;;;;;;14.40;7.70;;;;;;;20.06;50.74;101011.08;115125;1200;73356;-82
2021/11/04 10:07:47;;;;;;;14.70;7.20;;;;;;;20.07;50.70;101010.73;115231;1200;59119;-82
2021/11/04 10:10:16;;;;;;;13.00;7.60;;;;;;;20.06;50.81;101015.21;115183;1200;59753;-82
2021/11/04 10:13:17;;;;;;;12.10;7.60;;;;;;;20.06;50.89;101008.04;115142;1199;61258;-81
2021/11/04 10:15:43;;;;;;;16.90;7.90;;;;;;;20.07;51.11;101012.11;114762;1203;73425;-81
2021/11/04 10:18:13;;;;;;;15.50;7.70;;;;;;;20.09;51.11;101008.08;114743;1203;58791;-81
2021/11/04 10:20:39;;;;;;;12.80;7.80;;;;;;;20.10;51.10;101003.35;114788;1203;61130;-82
2021/11/04 10:23:20;;;;;;;12.80;7.10;;;;;;;20.12;51.25;101001.48;114793;1203;60973;-82
2021/11/04 10:25:50;;;;;;;11.20;7.10;;;;;;;20.12;51.26;101002.88;114795;1203;73686;-82
2021/11/04 10:28:36;;;;;;;13.00;7.90;;;;;;;20.13;51.44;101003.02;114778;1203;74188;-82
2021/11/04 10:31:03;;;;;;;10.80;7.30;;;;;;;20.13;51.42;100998.03;114764;1203;59899;-82
2021/11/04 10:33:39;;;;;;;12.00;7.90;;;;;;;20.13;51.56;100995.69;114829;1203;58869;-82
2021/11/04 10:36:22;;;;;;;11.80;7.20;;;;;;;20.13;51.64;100995.48;114720;1203;72221;-82
2021/11/04 10:38:51;;;;;;;11.70;7.80;;;;;;;20.13;51.65;100988.52;114926;1202;76034;-83
2021/11/04 10:41:26;;;;;;;12.90;7.20;;;;;;;20.13;51.64;100982.41;114764;1203;61249;-82
2021/11/04 10:43:58;;;;;;;13.60;7.30;;;;;;;20.14;51.63;100977.55;114807;1203;60166;-82
2021/11/04 10:46:28;;;;;;;13.30;7.70;;;;;;;20.14;51.63;100967.92;114806;1203;71053;-83
2021/11/04 10:49:02;;;;;;;13.50;7.40;;;;;;;20.14;51.77;100967.21;114826;1203;73997;-82
2021/11/04 10:51:29;;;;;;;14.10;7.80;;;;;;;20.13;51.76;100961.52;115239;1200;59930;-82
2021/11/04 10:54:15;;;;;;;14.30;7.60;;;;;;;20.13;51.70;100960.63;115162;1199;60305;-82
2021/11/04 10:56:52;;;;;;;13.10;7.20;;;;;;;20.14;51.72;100949.34;115211;1199;73336;-82
2021/11/04 10:59:23;;;;;;;11.50;7.30;;;;;;;20.14;51.68;100946.99;115182;1200;74338;-83
2021/11/04 11:02:09;;;;;;;10.10;6.90;;;;;;;20.13;51.79;100941.34;115145;1200;59981;-82
2021/11/04 11:04:38;;;;;;;11.20;7.00;;;;;;;20.13;51.64;100942.75;115130;1199;58856;-82
2021/11/04 11:07:04;;;;;;;11.60;7.20;;;;;;;20.13;51.69;100942.23;115126;1199;72504;-82
2021/11/04 11:09:35;;;;;;;12.00;7.60;;;;;;;20.13;51.67;100943.66;115071;1199;74353;-82
2021/11/04 11:12:04;;;;;;;9.70;6.90;;;;;;;20.13;51.53;100945.98;115173;1199;61500;-82
2021/11/04 11:14:33;;;;;;;12.10;7.40;;;;;;;20.13;51.61;100944.23;115087;1199;59851;-82
2021/11/04 11:17:00;;;;;;;12.00;7.30;;;;;;;20.12;51.72;100950.70;115114;1199;72180;-82
2021/11/04 11:19:38;;;;;;;12.40;7.00;;;;;;;20.11;51.59;100947.37;115136;1200;75750;-82
2021/11/04 11:22:07;;;;;;;10.60;7.20;;;;;;;20.10;51.58;100947.42;115174;1200;61096;-82
2021/11/04 11:24:37;;;;;;;11.40;7.20;;;;;;;20.08;51.57;100944.50;115178;1198;60096;-82
2021/11/04 11:27:04;;;;;;;12.50;7.10;;;;;;;20.07;51.57;100940.45;115085;1200;72079;-82
2021/11/04 11:29:36;;;;;;;14.90;7.40;;;;;;;20.06;51.63;100943.93;115080;1199;74289;-82
2021/11/04 11:32:05;;;;;;;14.10;7.00;;;;;;;20.05;51.69;100942.23;115178;1200;60816;-82
2021/11/04 11:34:33;;;;;;;11.00;6.80;;;;;;;20.04;51.53;100943.89;115213;1199;60055;-82
2021/11/04 11:37:13;;;;;;;10.90;6.90;;;;;;;20.03;51.68;100943.45;115224;1200;73640;-82
2021/11/04 11:39:52;;;;;;;11.80;7.00;;;;;;;20.01;51.65;100935.17;115217;1198;75374;-82
2021/11/04 11:42:29;;;;;;;14.30;7.40;;;;;;;19.99;51.53;100932.77;115107;1199;59805;-82
2021/11/04 11:45:19;;;;;;;12.80;7.30;;;;;;;19.98;51.58;100928.18;115139;1200;60247;-82
2021/11/04 11:47:47;;;;;;;11.80;6.90;;;;;;;19.97;51.58;100933.27;115137;1198;72090;-82
2021/11/04 11:50:48;;;;;;;11.00;7.20;;;;;;;19.95;51.51;100933.39;115199;1199;71195;-82
2021/11/04 11:53:45;;;;;;;12.70;7.00;;;;;;;19.93;51.61;100936.37;115198;1200;60041;-82
2021/11/04 11:56:23;;;;;;;9.60;7.00;;;;;;;19.92;51.63;100933.76;115159;1199;59852;-82
2021/11/04 11:58:50;;;;;;;10.60;6.70;;;;;;;19.90;51.68;100933.84;115120;1199;73210;-83
2021/11/04 12:01:17;;;;;;;10.10;6.90;;;;;;;19.89;51.70;100924.08;115100;1200;74103;-82
2021/11/04 12:04:25;;;;;;;12.80;7.00;;;;;;;19.89;51.69;100922.16;115128;1199;59894;-82
2021/11/04 12:07:30;;;;;;;10.50;6.30;;;;;;;19.86;51.73;100931.09;114817;1202;59901;-82
2021/11/04 12:10:18;;;;;;;;;;;;;;;;;;;;;
2021/11/04 12:12:44;;;;;;;11.00;6.70;;;;;;;19.84;51.72;100923.91;114759;1203;74869;-82
2021/11/04 12:15:10;;;;;;;10.80;7.60;;;;;;;19.83;51.63;100927.73;114853;1202;60017;-82
2021/11/04 12:17:39;;;;;;;9.80;6.50;;;;;;;19.83;51.75;100928.64;114820;1202;58853;-82
2021/11/04 12:20:05;;;;;;;10.40;6.90;;;;;;;19.82;51.76;100925.65;114852;1202;73220;-82
2021/11/04 12:22:34;;;;;;;12.90;7.70;;;;;;;19.81;51.83;100920.33;114781;1202;59185;-82
2021/11/04 12:25:13;;;;;;;9.30;6.70;;;;;;;19.81;51.72;100917.32;114815;1202;60262;-82
2021/11/04 12:27:58;;;;;;;11.30;7.00;;;;;;;19.81;51.67;100918.76;114842;1203;61175;-82
2021/11/04 12:30:55;;;;;;;;;;;;;;;;;;;;;
2021/11/04 12:33:33;;;;;;;9.90;6.40;;;;;;;19.79;51.75;100919.95;114780;1202;75389;-82
2021/11/04 12:36:11;;;;;;;10.70;6.70;;;;;;;19.78;51.82;100914.80;114832;1196;60943;-82
2021/11/04 12:39:00;;;;;;;13.60;6.90;;;;;;;19.77;51.83;100906.48;114941;1202;59771;-82
2021/11/04 12:41:46;;;;;;;11.80;6.70;;;;;;;19.76;51.76;100907.92;114948;1196;72307;-82
2021/11/04 12:44:38;;;;;;;11.70;7.20;;;;;;;19.75;51.81;100904.96;115110;1200;74579;-82
2021/11/04 12:47:06;;;;;;;13.70;6.80;;;;;;;19.74;51.75;100904.87;114861;1203;60919;-82
2021/11/04 12:49:42;;;;;;;13.30;6.70;;;;;;;19.74;51.81;100902.56;114805;1202;60067;-82
2021/11/04 12:52:11;;;;;;;8.40;6.70;;;;;;;19.73;51.81;100897.41;114847;1202;72317;-82
2021/11/04 12:55:06;;;;;;;8.60;6.40;;;;;;;19.72;51.81;100894.43;114757;1203;74454;-82
2021/11/04 12:58:03;;;;;;;9.70;6.20;;;;;;;19.72;51.87;100892.52;114679;1202;59143;-82
2021/11/04 13:00:30;;;;;;;11.00;7.00;;;;;;;19.71;51.90;100893.62;114792;1203;60124;-82
2021/11/04 13:02:59;;;;;;;11.90;6.90;;;;;;;19.71;51.85;100893.27;114835;1203;72015;-82
2021/11/04 13:05:25;;;;;;;10.60;6.90;;;;;;;19.70;51.75;100887.23;114828;1202;74101;-82
2021/11/04 13:08:05;;;;;;;8.80;6.50;;;;;;;19.70;51.82;100882.81;114846;1203;58996;-82
2021/11/04 13:10:34;;;;;;;10.20;6.40;;;;;;;19.70;51.83;100881.21;114805;1203;59924;-82
2021/11/04 13:13:18;;;;;;;9.50;6.30;;;;;;;19.69;51.66;100882.88;114868;1203;72127;-82
2021/11/04 13:16:18;;;;;;;11.60;7.10;;;;;;;19.68;51.81;100885.96;114831;1203;73177;-82
2021/11/04 13:19:05;;;;;;;10.30;6.70;;;;;;;19.68;51.83;100889.34;114791;1203;59939;-82
2021/11/04 13:21:49;;;;;;;10.10;6.50;;;;;;;19.67;51.85;100888.15;114839;1203;60267;-82
2021/11/04 13:24:21;;;;;;;10.00;6.40;;;;;;;19.67;51.75;100890.47;114994;1199;72431;-81
2021/11/04 13:26:50;;;;;;;8.70;6.30;;;;;;;19.66;51.81;100882.30;115151;1199;75467;-82
2021/11/04 13:29:23;;;;;;;9.00;6.30;;;;;;;19.66;51.88;100877.71;115262;1200;58992;-82
2021/11/04 13:31:52;;;;;;;9.20;5.80;;;;;;;19.66;51.76;100880.23;115147;1198;60060;-82
2021/11/04 13:34:18;;;;;;;10.30;6.40;;;;;;;19.65;51.78;100885.77;115301;1200;72820;-82
2021/11/04 13:36:52;;;;;;;11.10;6.40;;;;;;;19.65;51.84;100884.36;115254;1200;74371;-82
2021/11/04 13:39:36;;;;;;;9.30;6.50;;;;;;;19.65;51.96;100877.44;115246;1200;59877;-82
2021/11/04 13:42:01;;;;;;;8.70;6.10;;;;;;;19.64;51.80;100876.23;115219;1199;58856;-82
2021/11/04 13:44:46;;;;;;;8.60;5.80;;;;;;;19.64;51.78;100874.98;115180;1200;72257;-82
2021/11/04 13:47:24;;;;;;;;;;;;;;;;;;;;;
2021/11/04 13:50:30;;;;;;;10.80;6.10;;;;;;;19.63;51.87;100878.60;115165;1198;59777;-82
2021/11/04 13:53:19;;;;;;;10.10;6.50;;;;;;;19.62;52.02;100876.15;115313;1200;61075;-82
2021/11/04 13:55:50;;;;;;;8.10;5.90;;;;;;;19.62;51.95;100874.72;115254;1200;72128;-83
2021/11/04 13:58:54;;;;;;;9.80;6.60;;;;;;;19.62;51.94;100874.38;115096;1199;75129;-82
2021/11/04 14:01:29;;;;;;;9.00;6.40;;;;;;;19.62;51.85;100870.85;115126;1198;59854;-82
2021/11/04 14:04:09;;;;;;;9.30;6.20;;;;;;;19.63;51.85;100872.75;115134;1200;59970;-82
2021/11/04 14:07:04;;;;;;;9.10;6.40;;;;;;;19.62;51.85;100866.01;115253;1198;71166;-82
2021/11/04 14:09:41;;;;;;;12.50;6.50;;;;;;;19.62;51.90;100869.41;115149;1200;75238;-82
2021/11/04 14:12:23;;;;;;;8.30;5.90;;;;;;;19.62;51.69;100872.26;115105;1199;61271;-82
2021/11/04 14:14:58;;;;;;;9.90;6.10;;;;;;;19.61;51.96;100871.02;115228;1200;61153;-82